Time;durP1;ratioP1;P1;durP2;ratioP2;P2;SDS_P1;SDS_P2;PMS_P1;PMS_P2;Temp;Humidity;BMP_temperature;BMP_pressure;BME280_temperature;BME280_humidity;BME280_pressure;Samples;Min_cycle;Max_cycle;Signal;HPM_P1;HPM_P2
2022/07/22 00:00:15;;;;;;;12.47;9.97;;;;;;;17.43;80.98;94393.06;5051255;28;20598;-55
2022/07/22 00:03:00;;;;;;;11.70;9.73;;;;;;;17.40;81.45;94389.38;5046124;28;20220;-55
2022/07/22 00:05:44;;;;;;;10.43;9.30;;;;;;;17.26;81.87;94391.47;5050436;28;20225;-55
2022/07/22 00:08:28;;;;;;;11.70;9.53;;;;;;;17.22;81.82;94382.72;5048337;28;20305;-55
2022/07/22 00:11:12;;;;;;;10.97;9.63;;;;;;;17.21;81.86;94381.28;5043467;28;20213;-55
2022/07/22 00:13:56;;;;;;;12.80;9.97;;;;;;;17.17;81.62;94378.22;5036054;28;20221;-55
2022/07/22 00:16:40;;;;;;;9.90;8.90;;;;;;;17.06;82.04;94379.03;5046584;28;20260;-55
2022/07/22 00:19:24;;;;;;;13.40;9.13;;;;;;;17.09;81.46;94377.78;5052048;28;20197;-55
2022/07/22 00:22:09;;;;;;;13.83;9.70;;;;;;;16.81;84.05;94370.56;5043311;28;20302;-55
2022/07/22 00:24:53;;;;;;;11.20;9.13;;;;;;;16.81;84.45;94370.56;5049259;28;20200;-55
2022/07/22 00:27:37;;;;;;;11.10;9.17;;;;;;;16.90;83.46;94366.81;5050876;28;20201;-56
2022/07/22 00:30:21;;;;;;;15.93;9.27;;;;;;;16.87;83.95;94368.81;5041717;28;20201;-55
2022/07/22 00:33:05;;;;;;;12.53;10.20;;;;;;;16.97;83.41;94365.81;5051705;28;20307;-55
2022/07/22 00:35:49;;;;;;;9.70;8.70;;;;;;;16.87;84.67;94360.31;5051172;28;21191;-55
2022/07/22 00:38:34;;;;;;;10.30;9.17;;;;;;;16.72;84.97;94365.81;5043910;28;20201;-55
2022/07/22 00:41:18;;;;;;;14.70;9.13;;;;;;;16.78;84.18;94357.66;5044218;28;20265;-55
2022/07/22 00:44:06;;;;;;;12.73;8.73;;;;;;;16.80;83.96;94352.09;5035082;28;20710;-55
2022/07/22 00:46:50;;;;;;;11.40;10.20;;;;;;;16.83;85.31;94350.88;5045646;28;20194;-55
2022/07/22 00:49:34;;;;;;;13.70;9.80;;;;;;;16.96;85.77;94353.75;5044889;28;20225;-55
2022/07/22 00:52:21;;;;;;;15.03;11.07;;;;;;;17.05;84.83;94343.56;5047169;28;20201;-55
2022/07/22 00:55:06;;;;;;;11.37;10.27;;;;;;;17.13;83.45;94343.28;5051659;28;20205;-55
2022/07/22 00:57:50;;;;;;;11.00;9.67;;;;;;;17.16;83.50;94347.69;5047258;28;20539;-55
2022/07/22 01:00:34;;;;;;;16.80;11.07;;;;;;;17.15;85.27;94344.13;5042318;28;20875;-55
2022/07/22 01:03:18;;;;;;;12.63;10.13;;;;;;;17.09;83.98;94343.81;5060432;28;20272;-55
2022/07/22 01:06:03;;;;;;;11.03;9.87;;;;;;;17.05;84.27;94337.91;5052386;28;20612;-55
2022/07/22 01:08:48;;;;;;;12.67;10.73;;;;;;;16.99;85.72;94352.47;5045665;28;20209;-55
2022/07/22 01:11:32;;;;;;;12.93;10.70;;;;;;;17.13;85.16;94344.00;5062120;28;20877;-55
2022/07/22 01:14:17;;;;;;;10.63;9.53;;;;;;;17.18;84.67;94337.19;5043633;28;21058;-55
2022/07/22 01:17:01;;;;;;;11.20;9.03;;;;;;;17.25;82.99;94343.94;5048225;28;20201;-55
2022/07/22 01:19:45;;;;;;;13.57;9.97;;;;;;;17.19;82.91;94341.50;5044081;28;20616;-55
2022/07/22 01:22:31;;;;;;;10.23;8.67;;;;;;;17.08;83.17;94341.59;5047843;28;20241;-55
2022/07/22 01:25:15;;;;;;;13.10;9.63;;;;;;;17.07;83.62;94332.38;5061098;28;20217;-55
2022/07/22 01:27:59;;;;;;;13.17;9.03;;;;;;;17.04;84.36;94342.09;5051191;28;20244;-55
2022/07/22 01:30:43;;;;;;;14.33;9.93;;;;;;;17.05;84.37;94337.91;5047281;28;20271;-55
2022/07/22 01:33:27;;;;;;;10.23;9.07;;;;;;;16.91;84.19;94340.00;5042451;28;20205;-55
2022/07/22 01:36:11;;;;;;;13.80;9.57;;;;;;;16.73;86.61;94336.16;5059205;28;20212;-55
2022/07/22 01:38:56;;;;;;;12.23;9.80;;;;;;;16.60;87.40;94334.03;5049849;28;20686;-55
2022/07/22 01:41:41;;;;;;;13.63;9.60;;;;;;;16.50;88.43;94332.06;5045742;28;20237;-55
2022/07/22 01:44:31;;;;;;;10.93;9.67;;;;;;;16.64;88.68;94334.25;5044219;28;20205;-55
2022/07/22 01:47:15;;;;;;;11.40;9.03;;;;;;;16.78;86.10;94329.38;5050391;28;20216;-55
2022/07/22 01:49:59;;;;;;;10.33;9.23;;;;;;;16.83;83.82;94333.88;5060516;28;20244;-55
2022/07/22 01:52:43;;;;;;;12.27;9.33;;;;;;;16.76;85.17;94323.59;5043034;28;20201;-55
2022/07/22 01:55:28;;;;;;;13.17;9.73;;;;;;;16.74;86.21;94320.63;5047078;28;20197;-55
2022/07/22 01:58:12;;;;;;;16.00;10.53;;;;;;;16.86;86.31;94321.28;5058716;28;20200;-55
2022/07/22 02:00:57;;;;;;;11.83;9.70;;;;;;;16.93;84.83;94323.09;5061461;28;20330;-55
2022/07/22 02:03:41;;;;;;;16.87;10.70;;;;;;;16.95;85.56;94323.97;5042607;28;20224;-55
2022/07/22 02:06:26;;;;;;;11.40;10.20;;;;;;;17.03;85.08;94329.31;5046870;28;20229;-55
2022/07/22 02:09:14;;;;;;;11.63;9.73;;;;;;;16.91;84.58;94320.19;5062301;28;20724;-55
2022/07/22 02:12:01;;;;;;;11.60;9.17;;;;;;;17.08;82.96;94321.78;5044943;28;20248;-55
2022/07/22 02:14:52;;;;;;;9.53;8.40;;;;;;;17.14;80.34;94322.84;5040015;28;20288;-55
2022/07/22 02:17:36;;;;;;;10.40;9.27;;;;;;;16.96;80.39;94327.53;5045390;28;20205;-55
2022/07/22 02:20:21;;;;;;;12.20;8.33;;;;;;;16.96;81.13;94322.59;5044799;28;20259;-55
2022/07/22 02:23:11;;;;;;;12.33;8.93;;;;;;;16.88;81.14;94318.59;5047364;28;20698;-55
2022/07/22 02:25:56;;;;;;;11.70;8.80;;;;;;;16.69;82.31;94318.94;5046005;28;20244;-55
2022/07/22 02:28:39;;;;;;;15.30;9.70;;;;;;;16.49;83.97;94318.53;5048479;28;20205;-55
2022/07/22 02:31:23;;;;;;;13.93;9.63;;;;;;;16.21;87.44;94316.97;5047179;28;20202;-55
2022/07/22 02:34:08;;;;;;;15.00;8.63;;;;;;;16.32;86.36;94316.91;5048571;28;20209;-55
2022/07/22 02:36:52;;;;;;;10.33;8.83;;;;;;;16.27;86.79;94318.03;5050294;28;20204;-55
2022/07/22 02:39:37;;;;;;;13.93;9.00;;;;;;;16.36;85.94;94322.03;5047792;28;20260;-55
2022/07/22 02:42:21;;;;;;;11.33;9.20;;;;;;;16.38;85.75;94314.41;5053809;28;20283;-55
2022/07/22 02:45:09;;;;;;;15.77;10.10;;;;;;;16.38;85.41;94317.25;5053638;28;20624;-55
2022/07/22 02:47:55;;;;;;;12.03;10.30;;;;;;;16.06;86.42;94318.22;5056317;28;20245;-55
2022/07/22 02:50:46;;;;;;;17.27;10.30;;;;;;;16.10;88.02;94313.56;5045061;28;20229;-55
2022/07/22 02:53:30;;;;;;;16.33;10.03;;;;;;;16.17;87.64;94311.78;5044006;28;20225;-56
2022/07/22 02:56:17;;;;;;;10.60;9.60;;;;;;;16.12;86.73;94308.00;5048735;28;20229;-55
2022/07/22 02:59:01;;;;;;;12.03;10.77;;;;;;;15.85;89.37;94316.34;5046433;28;20208;-55
2022/07/22 03:01:45;;;;;;;13.73;9.87;;;;;;;15.88;91.80;94323.56;5045842;28;20303;-55
2022/07/22 03:04:29;;;;;;;14.53;11.37;;;;;;;16.13;90.86;94317.97;5047567;28;20213;-55
2022/07/22 03:07:13;;;;;;;13.07;11.30;;;;;;;16.12;89.95;94321.41;5052700;28;20206;-55
2022/07/22 03:09:58;;;;;;;15.33;10.73;;;;;;;16.06;89.37;94323.88;5052863;28;20251;-56
2022/07/22 03:12:42;;;;;;;12.90;10.87;;;;;;;16.15;86.99;94317.34;5045049;28;20568;-55
2022/07/22 03:15:26;;;;;;;13.70;10.37;;;;;;;16.02;86.72;94324.41;5045111;28;20193;-55
2022/07/22 03:18:10;;;;;;;14.87;10.53;;;;;;;16.09;86.87;94317.00;5047907;28;20312;-55
2022/07/22 03:20:54;;;;;;;19.20;11.77;;;;;;;16.08;86.53;94315.53;5047250;28;20225;-55
2022/07/22 03:23:38;;;;;;;13.97;11.10;;;;;;;16.05;86.32;94316.75;5050144;28;20226;-55
2022/07/22 03:26:23;;;;;;;16.93;11.87;;;;;;;15.85;86.63;94321.25;5047850;28;20264;-55
2022/07/22 03:29:08;;;;;;;17.13;10.07;;;;;;;15.86;86.23;94317.78;5050386;28;20572;-55
2022/07/22 03:31:52;;;;;;;14.77;10.90;;;;;;;16.01;86.07;94319.34;5055502;28;20671;-55
2022/07/22 03:34:48;;;;;;;14.93;10.83;;;;;;;15.76;89.01;94323.59;5047860;28;20210;-55
2022/07/22 03:37:34;;;;;;;19.87;12.80;;;;;;;15.67;91.72;94327.31;5051146;28;20267;-55
2022/07/22 03:40:18;;;;;;;20.83;11.20;;;;;;;15.90;90.08;94318.03;5050539;28;20264;-55
2022/07/22 03:43:02;;;;;;;11.20;9.50;;;;;;;15.89;87.80;94322.22;5049429;28;20213;-55
2022/07/22 03:45:46;;;;;;;12.50;9.73;;;;;;;15.82;87.02;94328.13;5045837;28;20205;-55
2022/07/22 03:48:31;;;;;;;14.97;11.07;;;;;;;15.74;88.11;94331.22;5045880;28;20591;-55
2022/07/22 03:51:15;;;;;;;10.43;9.33;;;;;;;15.85;85.93;94322.00;5050782;28;20253;-56
2022/07/22 03:54:00;;;;;;;13.80;9.60;;;;;;;15.84;85.61;94325.44;5042374;28;20567;-55
2022/07/22 03:56:44;;;;;;;13.20;10.47;;;;;;;15.87;85.86;94324.19;5046502;28;20273;-55
2022/07/22 03:59:28;;;;;;;11.80;10.07;;;;;;;15.93;85.59;94321.72;5044680;28;20264;-55
2022/07/22 04:02:12;;;;;;;16.17;9.60;;;;;;;16.06;83.47;94318.22;5046115;28;20236;-55
2022/07/22 04:04:55;;;;;;;12.60;9.77;;;;;;;16.18;82.65;94324.56;5042309;28;20746;-55
2022/07/22 04:07:40;;;;;;;11.27;10.03;;;;;;;16.11;83.61;94319.94;5045863;28;20273;-55
2022/07/22 04:10:24;;;;;;;10.93;9.57;;;;;;;16.21;84.11;94320.53;5047815;28;20278;-55
2022/07/22 04:13:08;;;;;;;10.17;9.10;;;;;;;16.93;80.64;94321.00;5049991;28;20202;-55
2022/07/22 04:16:02;;;;;;;9.80;8.77;;;;;;;18.30;72.62;94314.56;5044502;28;20683;-55
2022/07/22 04:18:46;;;;;;;9.80;8.80;;;;;;;19.50;67.85;94323.78;5047924;28;20214;-55
2022/07/22 04:21:31;;;;;;;11.53;8.30;;;;;;;20.17;64.61;94319.59;5050533;28;20272;-55
2022/07/22 04:24:19;;;;;;;20.90;10.20;;;;;;;21.10;61.54;94316.19;5048179;28;20286;-55
2022/07/22 04:27:04;;;;;;;13.17;9.10;;;;;;;21.56;60.24;94314.34;5048475;28;20201;-55
2022/07/22 04:29:48;;;;;;;9.03;7.60;;;;;;;20.86;60.97;94315.97;5047884;28;20205;-55
2022/07/22 04:32:32;;;;;;;11.03;7.23;;;;;;;21.02;60.89;94316.59;5037250;28;20198;-55
2022/07/22 04:35:17;;;;;;;16.80;7.97;;;;;;;20.70;61.67;94329.56;5044447;28;20237;-55
2022/07/22 04:38:11;;;;;;;13.33;7.70;;;;;;;19.59;65.40;94319.91;5042549;28;20277;-55
2022/07/22 04:40:58;;;;;;;9.40;7.93;;;;;;;19.56;66.13;94321.94;5041345;28;20714;-55
2022/07/22 04:43:43;;;;;;;10.03;8.40;;;;;;;19.67;66.32;94315.31;5053632;28;20384;-55
2022/07/22 04:46:27;;;;;;;9.90;7.90;;;;;;;19.57;66.68;94314.84;5043068;28;20205;-55
2022/07/22 04:49:13;;;;;;;11.40;8.13;;;;;;;19.64;66.89;94316.59;5049611;28;20213;-55
2022/07/22 04:51:58;;;;;;;16.63;8.47;;;;;;;19.43;68.01;94319.91;5047819;28;20249;-55
2022/07/22 04:54:53;;;;;;;8.83;8.03;;;;;;;19.60;67.96;94316.44;5050342;28;20229;-55
2022/07/22 04:57:37;;;;;;;10.90;8.67;;;;;;;19.78;68.27;94320.06;5050461;28;20209;-55
2022/07/22 05:00:23;;;;;;;11.50;8.50;;;;;;;20.11;66.68;94321.44;5044144;28;20301;-54
2022/07/22 05:03:12;;;;;;;9.13;8.10;;;;;;;20.28;66.54;94323.59;5049191;28;20225;-55
2022/07/22 05:05:59;;;;;;;12.27;8.60;;;;;;;20.35;66.13;94322.47;5048036;28;20248;-55
2022/07/22 05:08:50;;;;;;;10.70;8.97;;;;;;;20.10;68.49;94323.56;5059700;28;20280;-55
2022/07/22 05:11:34;;;;;;;11.73;9.57;;;;;;;20.32;67.92;94323.78;5047862;28;20198;-55
2022/07/22 05:14:18;;;;;;;16.50;10.10;;;;;;;20.53;67.18;94309.00;5043581;28;21028;-55
2022/07/22 05:17:01;;;;;;;10.57;9.00;;;;;;;20.73;66.34;94314.75;5050413;28;20240;-55
2022/07/22 05:19:46;;;;;;;13.33;9.73;;;;;;;20.97;65.86;94310.03;5048732;28;20206;-55
2022/07/22 05:22:31;;;;;;;10.10;8.73;;;;;;;21.09;65.99;94309.03;5049758;28;20189;-54
2022/07/22 05:25:17;;;;;;;9.83;8.83;;;;;;;21.26;66.42;94316.81;5046834;28;20310;-55
2022/07/22 05:28:01;;;;;;;11.27;9.47;;;;;;;21.35;65.91;94313.59;5045099;28;20205;-55
2022/07/22 05:30:50;;;;;;;10.57;9.57;;;;;;;21.51;65.38;94312.75;5048980;28;20268;-54
2022/07/22 05:33:34;;;;;;;10.25;8.80;;;;;;;21.72;64.91;94312.84;5049643;28;20194;-55
2022/07/22 05:36:23;;;;;;;10.33;9.33;;;;;;;21.96;65.23;94315.13;5048948;28;20248;-54
2022/07/22 05:39:07;;;;;;;12.45;10.00;;;;;;;22.05;65.23;94311.13;5060795;28;20197;-55
2022/07/22 05:41:51;;;;;;;11.65;10.00;;;;;;;22.31;64.35;94314.88;5044883;28;20591;-55
2022/07/22 05:44:36;;;;;;;10.63;9.23;;;;;;;22.45;64.56;94314.63;5041501;28;20213;-54
2022/07/22 05:47:20;;;;;;;11.95;9.35;;;;;;;22.57;63.80;94312.19;5048336;28;20268;-54
2022/07/22 05:50:04;;;;;;;12.13;9.65;;;;;;;22.84;63.89;94305.19;5048740;28;20281;-54
2022/07/22 05:52:50;;;;;;;12.20;8.75;;;;;;;23.03;62.75;94315.06;5042967;28;20196;-54
2022/07/22 05:55:34;;;;;;;10.38;9.20;;;;;;;23.03;63.72;94309.34;5043656;28;20248;-54
2022/07/22 05:58:18;;;;;;;12.05;9.65;;;;;;;23.07;64.15;94303.78;5043328;28;20186;-54
2022/07/22 06:01:02;;;;;;;10.45;9.45;;;;;;;23.27;63.49;94310.09;5041219;28;20316;-54
2022/07/22 06:03:46;;;;;;;10.73;9.52;;;;;;;23.45;63.06;94302.06;5049681;28;20225;-54
2022/07/22 06:06:32;;;;;;;10.60;9.57;;;;;;;23.44;62.48;94300.59;5049928;28;20312;-54
2022/07/22 06:09:16;;;;;;;10.27;9.13;;;;;;;23.72;60.66;94312.88;5049583;28;20213;-54
2022/07/22 06:12:01;;;;;;;9.35;8.45;;;;;;;24.03;58.43;94310.84;5045460;28;20260;-55
2022/07/22 06:14:47;;;;;;;11.55;9.68;;;;;;;24.10;60.29;94312.47;5043737;28;20302;-54
2022/07/22 06:17:31;;;;;;;9.25;8.35;;;;;;;24.25;59.79;94314.34;5049180;28;20304;-54
2022/07/22 06:20:17;;;;;;;10.30;9.27;;;;;;;24.26;59.81;94310.06;5053185;28;20355;-55
2022/07/22 06:23:01;;;;;;;10.95;8.95;;;;;;;24.51;58.56;94312.16;5060505;28;20289;-54
2022/07/22 06:25:46;;;;;;;10.43;9.32;;;;;;;24.46;59.92;94313.47;5048284;28;20247;-55
2022/07/22 06:28:41;;;;;;;11.90;9.10;;;;;;;24.58;58.05;94305.16;5054163;28;20208;-54
2022/07/22 06:31:26;;;;;;;13.68;10.10;;;;;;;24.81;57.50;94300.69;5054811;28;20192;-55
2022/07/22 06:34:10;;;;;;;9.75;8.63;;;;;;;24.92;56.39;94308.19;5052012;28;20232;-55
2022/07/22 06:37:10;;;;;;;11.43;9.07;;;;;;;25.02;55.46;94309.81;5041175;28;20219;-55
2022/07/22 06:39:54;;;;;;;9.80;8.80;;;;;;;25.10;55.39;94312.88;5045693;28;20201;-55
2022/07/22 06:42:50;;;;;;;10.52;9.52;;;;;;;25.19;55.45;94308.75;5045787;28;20739;-55
2022/07/22 06:45:45;;;;;;;10.35;8.75;;;;;;;25.43;55.27;94314.34;5050129;28;20260;-55
2022/07/22 06:48:37;;;;;;;9.90;8.90;;;;;;;25.67;55.26;94318.47;5038398;28;20277;-55
2022/07/22 06:51:21;;;;;;;11.73;9.85;;;;;;;25.66;54.58;94319.88;5050743;28;20197;-55
2022/07/22 06:54:05;;;;;;;11.70;8.70;;;;;;;25.64;54.85;94314.09;5049198;28;20201;-54
2022/07/22 06:56:49;;;;;;;9.20;7.47;;;;;;;25.76;53.27;94322.22;5049884;28;20213;-55
2022/07/22 06:59:37;;;;;;;11.25;8.57;;;;;;;25.75;54.04;94317.91;5045030;28;20344;-55
2022/07/22 07:02:26;;;;;;;10.25;9.20;;;;;;;25.85;53.73;94318.13;5044398;28;20197;-55
2022/07/22 07:05:10;;;;;;;11.23;9.52;;;;;;;26.07;54.17;94312.81;5053415;28;20201;-55
2022/07/22 07:07:56;;;;;;;9.93;9.00;;;;;;;25.55;55.60;94317.47;5053421;28;20682;-55
2022/07/22 07:10:40;;;;;;;9.13;8.18;;;;;;;25.88;53.50;94302.38;5056090;28;20201;-55
2022/07/22 07:13:29;;;;;;;11.32;9.50;;;;;;;25.84;54.57;94308.03;5042509;28;20204;-55
2022/07/22 07:16:13;;;;;;;9.68;8.68;;;;;;;25.54;54.71;94307.41;5053198;28;20198;-55
2022/07/22 07:18:57;;;;;;;15.00;9.52;;;;;;;25.68;55.27;94304.81;5048706;28;20560;-55
2022/07/22 07:21:41;;;;;;;9.75;8.80;;;;;;;25.81;53.80;94309.41;5050869;28;20220;-55
2022/07/22 07:24:26;;;;;;;11.82;9.85;;;;;;;25.42;55.73;94307.88;5051899;28;20217;-54
2022/07/22 07:27:10;;;;;;;11.18;9.90;;;;;;;25.85;54.92;94303.03;5052330;28;20196;-55
2022/07/22 07:29:56;;;;;;;11.13;10.00;;;;;;;26.10;53.94;94314.31;5044456;28;20205;-55
2022/07/22 07:32:40;;;;;;;10.93;9.73;;;;;;;25.99;54.38;94306.91;5052630;28;20292;-55
2022/07/22 07:35:24;;;;;;;10.63;9.65;;;;;;;26.38;53.94;94311.25;5052188;28;20322;-55
2022/07/22 07:38:08;;;;;;;11.05;9.90;;;;;;;26.70;51.82;94313.97;5041928;28;20264;-55
2022/07/22 07:40:53;;;;;;;11.80;9.30;;;;;;;26.51;53.13;94306.44;5050705;28;20221;-55
2022/07/22 07:43:37;;;;;;;12.30;9.90;;;;;;;26.50;52.98;94299.25;5049808;28;20251;-55
2022/07/22 07:46:21;;;;;;;9.88;8.98;;;;;;;26.35;54.06;94304.03;5048456;28;20572;-55
2022/07/22 07:49:05;;;;;;;12.07;9.75;;;;;;;26.84;51.99;94308.47;5051580;28;20213;-55
2022/07/22 07:51:50;;;;;;;12.35;9.80;;;;;;;27.09;51.54;94298.09;5037484;28;20281;-55
2022/07/22 07:54:34;;;;;;;12.85;9.98;;;;;;;27.42;51.95;94298.53;5049432;28;20282;-55
2022/07/22 07:57:18;;;;;;;10.02;8.20;;;;;;;27.48;47.99;94302.22;5051956;28;20521;-55
2022/07/22 08:00:07;;;;;;;7.72;6.93;;;;;;;27.56;45.79;94308.13;5039904;28;20197;-55
2022/07/22 08:02:57;;;;;;;8.65;7.82;;;;;;;27.20;46.20;94301.84;5050451;28;20284;-55
2022/07/22 08:05:43;;;;;;;13.20;7.97;;;;;;;27.72;45.29;94302.56;5051327;28;20682;-54
2022/07/22 08:08:33;;;;;;;8.30;7.45;;;;;;;27.35;45.67;94295.56;5050540;28;20631;-55
2022/07/22 08:11:24;;;;;;;8.38;7.38;;;;;;;27.60;45.72;94302.41;5057344;28;20197;-55
2022/07/22 08:14:15;;;;;;;10.82;8.00;;;;;;;27.92;44.38;94295.59;5046722;28;20244;-55
2022/07/22 08:17:12;;;;;;;9.07;7.78;;;;;;;28.04;44.02;94296.47;5052117;28;20264;-55
2022/07/22 08:19:56;;;;;;;13.00;8.55;;;;;;;27.86;45.10;94289.78;5051892;28;20208;-55
2022/07/22 08:22:40;;;;;;;10.60;7.78;;;;;;;28.42;44.31;94293.31;5050164;28;20600;-54
2022/07/22 08:25:24;;;;;;;10.25;8.32;;;;;;;27.94;44.04;94293.50;5045478;28;20205;-55
2022/07/22 08:28:08;;;;;;;11.18;8.20;;;;;;;27.53;45.13;94298.00;5049447;28;20245;-55
2022/07/22 08:30:53;;;;;;;10.13;7.78;;;;;;;28.07;44.57;94288.59;5045420;28;20228;-54
2022/07/22 08:33:37;;;;;;;8.90;7.70;;;;;;;28.46;43.58;94293.34;5050980;28;20210;-55
2022/07/22 08:36:21;;;;;;;8.82;7.93;;;;;;;27.87;44.72;94282.59;5048197;28;20205;-54
2022/07/22 08:39:06;;;;;;;8.32;7.50;;;;;;;28.05;44.31;94279.91;5049978;28;20205;-55
2022/07/22 08:41:53;;;;;;;10.32;7.90;;;;;;;28.49;45.24;94286.19;5050606;28;20296;-55
2022/07/22 08:44:37;;;;;;;9.27;7.63;;;;;;;27.86;43.59;94275.38;5044735;28;20197;-55
2022/07/22 08:47:25;;;;;;;9.25;7.75;;;;;;;27.75;44.42;94278.16;5049305;28;20670;-54
2022/07/22 08:50:23;;;;;;;7.53;6.82;;;;;;;28.34;42.51;94270.16;5031613;28;20220;-54
2022/07/22 08:53:15;;;;;;;10.35;8.13;;;;;;;28.54;42.62;94281.91;5046581;28;20725;-55
2022/07/22 08:56:01;;;;;;;11.27;8.18;;;;;;;27.99;44.06;94265.44;5050269;28;20197;-54
2022/07/22 08:58:46;;;;;;;9.13;7.53;;;;;;;28.24;43.52;94264.31;5047600;28;20579;-55
2022/07/22 09:01:31;;;;;;;9.32;8.18;;;;;;;27.95;44.34;94265.41;5047489;28;20727;-54
2022/07/22 09:04:16;;;;;;;10.30;7.45;;;;;;;28.36;42.65;94269.47;5045850;28;21080;-55
2022/07/22 09:07:00;;;;;;;8.63;7.72;;;;;;;28.78;43.02;94272.03;5050650;28;20576;-55
2022/07/22 09:09:44;;;;;;;11.45;8.02;;;;;;;28.79;43.61;94264.81;5045264;28;20315;-55
2022/07/22 09:13:04;;;;;;;8.70;7.07;;;;;;;28.91;42.53;94262.03;5019762;28;20230;-55
2022/07/22 09:16:08;;;;;;;7.45;6.75;;;;;;;29.43;41.98;94263.84;5049194;28;20256;-54
2022/07/22 09:19:03;;;;;;;8.35;6.68;;;;;;;29.73;40.75;94258.22;5048974;28;20218;-54
2022/07/22 09:21:49;;;;;;;8.88;7.05;;;;;;;29.30;39.41;94255.09;5051006;28;20265;-54
2022/07/22 09:24:38;;;;;;;10.10;6.05;;;;;;;29.05;38.35;94250.59;5043239;28;20256;-54
2022/07/22 09:27:53;;;;;;;7.30;6.57;;;;;;;29.42;39.34;94253.72;5040277;28;20193;-54
2022/07/22 09:30:53;;;;;;;7.45;5.88;;;;;;;29.30;38.09;94257.97;5038956;28;20702;-55
2022/07/22 09:33:37;;;;;;;5.75;5.13;;;;;;;29.25;38.12;94250.00;5044024;28;20244;-55
2022/07/22 09:36:55;;;;;;;7.35;6.55;;;;;;;29.70;39.41;94256.75;5050259;28;20240;-54
2022/07/22 09:39:40;;;;;;;8.85;6.65;;;;;;;30.05;38.95;94258.38;5042175;28;20285;-54
2022/07/22 09:42:23;;;;;;;6.75;6.03;;;;;;;30.32;37.44;94259.13;5040703;28;20666;-55
2022/07/22 09:45:08;;;;;;;7.68;6.18;;;;;;;30.12;37.99;94248.25;5042645;28;20264;-54
2022/07/22 09:47:59;;;;;;;7.10;6.10;;;;;;;30.51;37.46;94239.66;5046577;28;20289;-55
2022/07/22 09:51:17;;;;;;;8.32;6.38;;;;;;;30.08;38.19;94236.69;5030091;28;20685;-55
2022/07/22 09:54:29;;;;;;;6.85;5.93;;;;;;;30.09;38.68;94243.91;5048278;28;20205;-55
2022/07/22 09:57:14;;;;;;;7.57;6.43;;;;;;;30.19;38.20;94237.41;5045277;28;20256;-54
2022/07/22 09:59:58;;;;;;;9.68;5.90;;;;;;;30.75;37.96;94233.88;5043305;28;20206;-54
2022/07/22 10:03:01;;;;;;;8.60;6.13;;;;;;;30.55;37.02;94225.94;5047153;28;20305;-55
2022/07/22 10:05:48;;;;;;;6.93;6.15;;;;;;;30.85;36.16;94224.50;5046798;28;20667;-54
2022/07/22 10:08:33;;;;;;;9.27;5.90;;;;;;;31.08;36.39;94223.03;5043118;28;20300;-54
2022/07/22 10:11:18;;;;;;;6.72;5.35;;;;;;;30.81;36.27;94225.22;5044470;28;20205;-54
2022/07/22 10:14:03;;;;;;;6.00;5.50;;;;;;;31.01;34.20;94217.97;5043349;28;20221;-55
2022/07/22 10:16:47;;;;;;;6.47;5.53;;;;;;;31.12;36.53;94217.25;5043415;28;20210;-55
2022/07/22 10:19:32;;;;;;;10.20;5.93;;;;;;;30.44;36.50;94217.94;5042017;28;20256;-54
2022/07/22 10:22:47;;;;;;;7.65;5.88;;;;;;;30.69;34.56;94213.63;5041892;28;20240;-54
2022/07/22 10:25:50;;;;;;;6.85;6.20;;;;;;;30.33;35.91;94210.72;5041574;28;20293;-54
2022/07/22 10:28:35;;;;;;;5.90;5.40;;;;;;;30.97;36.93;94207.13;5041563;28;20566;-54
2022/07/22 10:31:24;;;;;;;6.45;5.82;;;;;;;30.75;36.59;94210.75;5048555;28;20591;-54
2022/07/22 10:34:08;;;;;;;7.47;6.78;;;;;;;30.33;37.63;94205.66;5048565;28;20198;-54
2022/07/22 10:36:52;;;;;;;8.35;6.13;;;;;;;30.37;37.73;94199.84;5046677;28;20205;-54
2022/07/22 10:40:11;;;;;;;7.63;5.97;;;;;;;30.62;36.90;94208.56;5050224;28;20210;-54
2022/07/22 10:43:03;;;;;;;7.90;6.25;;;;;;;30.56;36.21;94212.19;5043314;28;20596;-54
2022/07/22 10:45:52;;;;;;;6.78;6.10;;;;;;;31.08;36.46;94204.94;5046947;28;20578;-54
2022/07/22 10:48:36;;;;;;;8.35;6.28;;;;;;;30.91;36.41;94204.97;5044699;28;20213;-54
2022/07/22 10:51:21;;;;;;;7.32;6.28;;;;;;;31.15;36.04;94203.50;5043010;28;20193;-54
2022/07/22 10:54:05;;;;;;;6.88;6.20;;;;;;;31.57;35.83;94205.53;5048999;28;20201;-54
2022/07/22 10:56:51;;;;;;;8.48;6.28;;;;;;;31.29;36.07;94206.38;5052534;28;20713;-54
2022/07/22 10:59:35;;;;;;;9.23;6.80;;;;;;;30.93;36.12;94199.16;5050350;28;20267;-55
2022/07/22 11:02:20;;;;;;;9.43;6.53;;;;;;;31.15;36.48;94197.69;5036859;28;20757;-53
2022/07/22 11:05:05;;;;;;;8.40;6.90;;;;;;;31.72;36.15;94198.28;5053494;28;20593;-55
2022/07/22 11:07:49;;;;;;;9.23;5.88;;;;;;;32.08;35.23;94194.44;5054144;28;20248;-54
2022/07/22 11:10:34;;;;;;;7.43;6.57;;;;;;;31.65;34.30;94191.06;5051413;28;20205;-54
2022/07/22 11:13:34;;;;;;;10.70;7.15;;;;;;;31.69;35.55;94177.25;5043331;28;20217;-54
2022/07/22 11:16:21;;;;;;;6.35;5.85;;;;;;;32.24;34.96;94191.47;5039772;28;20237;-54
2022/07/22 11:19:05;;;;;;;9.77;6.63;;;;;;;32.32;33.66;94179.81;5046878;28;20212;-54
2022/07/22 11:21:52;;;;;;;7.07;6.10;;;;;;;32.41;34.44;94181.19;5052893;28;20225;-54
2022/07/22 11:24:37;;;;;;;7.03;6.22;;;;;;;32.40;34.19;94182.66;5046530;28;20289;-54
2022/07/22 11:27:21;;;;;;;6.90;5.80;;;;;;;32.55;33.61;94186.16;5045878;28;20274;-54
2022/07/22 11:30:06;;;;;;;7.38;6.03;;;;;;;32.56;33.34;94181.09;5051668;28;20198;-54
2022/07/22 11:32:50;;;;;;;6.70;6.07;;;;;;;32.11;33.74;94181.38;5040672;28;20733;-55
2022/07/22 11:35:37;;;;;;;6.53;5.85;;;;;;;32.40;33.14;94167.44;5040204;28;20198;-54
2022/07/22 11:38:20;;;;;;;10.32;6.88;;;;;;;32.72;34.11;94161.38;5045297;28;20363;-55
2022/07/22 11:41:05;;;;;;;6.50;5.90;;;;;;;32.98;33.78;94168.41;5050246;28;20241;-55
2022/07/22 11:43:50;;;;;;;7.72;6.93;;;;;;;32.81;33.22;94162.03;5051455;28;20271;-54
2022/07/22 11:46:39;;;;;;;7.00;6.20;;;;;;;32.49;33.61;94157.94;5053018;28;20223;-54
2022/07/22 11:49:25;;;;;;;6.25;5.63;;;;;;;32.76;33.14;94154.84;5047955;28;20213;-55
2022/07/22 11:52:11;;;;;;;8.27;6.22;;;;;;;33.02;32.13;94145.16;5047353;28;20248;-55
2022/07/22 11:54:56;;;;;;;7.10;6.40;;;;;;;33.13;32.35;94146.47;5051343;28;20315;-54
2022/07/22 11:57:47;;;;;;;6.72;6.13;;;;;;;33.03;32.86;94147.28;5045007;28;20291;-54
2022/07/22 12:00:31;;;;;;;6.25;5.40;;;;;;;32.65;32.96;94138.94;5048029;28;20229;-54
2022/07/22 12:03:15;;;;;;;7.13;6.43;;;;;;;32.99;33.07;94135.72;5052223;28;20224;-54
2022/07/22 12:06:00;;;;;;;7.18;6.22;;;;;;;33.20;32.65;94134.06;5051179;28;20264;-54
2022/07/22 12:08:47;;;;;;;13.00;6.57;;;;;;;33.09;33.43;94132.69;5052246;28;20682;-54
2022/07/22 12:11:32;;;;;;;6.75;6.10;;;;;;;32.58;33.06;94128.84;5050634;28;20201;-54
2022/07/22 12:14:31;;;;;;;6.78;6.07;;;;;;;32.96;33.85;94134.28;5042379;28;20698;-54
2022/07/22 12:17:16;;;;;;;6.65;5.95;;;;;;;33.42;31.66;94126.56;5052377;28;20209;-54
2022/07/22 12:20:12;;;;;;;7.10;6.40;;;;;;;33.69;32.79;94127.66;5049207;28;20573;-54
2022/07/22 12:22:56;;;;;;;9.77;5.93;;;;;;;33.70;31.64;94117.50;5051149;28;20290;-54
2022/07/22 12:25:58;;;;;;;7.30;6.28;;;;;;;33.08;32.82;94125.47;5049410;28;20209;-54
2022/07/22 12:28:42;;;;;;;8.57;5.90;;;;;;;33.12;32.35;94125.41;5044782;28;20240;-54
2022/07/22 12:31:26;;;;;;;6.40;5.80;;;;;;;33.27;31.29;94118.00;5051498;28;20290;-54
2022/07/22 12:34:10;;;;;;;7.88;5.97;;;;;;;33.09;31.23;94109.47;5048203;28;20202;-54
2022/07/22 12:36:54;;;;;;;6.75;6.05;;;;;;;33.05;31.34;94115.34;5049079;28;20678;-54
2022/07/22 12:39:39;;;;;;;6.57;5.97;;;;;;;33.54;31.62;94109.69;5047710;28;20244;-54
2022/07/22 12:42:29;;;;;;;7.03;6.43;;;;;;;33.10;31.87;94110.91;5051146;28;20280;-54
2022/07/22 12:45:21;;;;;;;6.38;5.85;;;;;;;33.33;32.68;94104.88;5044212;28;20256;-54
2022/07/22 12:48:10;;;;;;;7.75;5.50;;;;;;;33.43;33.09;94098.94;5051889;28;20264;-54
2022/07/22 12:50:57;;;;;;;6.78;6.07;;;;;;;33.36;33.04;94100.47;5043686;28;20205;-54
2022/07/22 12:53:41;;;;;;;7.80;6.68;;;;;;;33.44;31.71;94104.00;5046803;28;20218;-55
2022/07/22 12:56:25;;;;;;;6.82;6.13;;;;;;;33.15;31.67;94100.69;5050960;28;20237;-54